Time,TemperatureF,DewpointF,PressureIn,WindDirection,WindDirectionDegrees,WindSpeedMPH,WindSpeedGustMPH,Humidity,HourlyPrecipIn,Conditions,Clouds,dailyrainin,SoftwareType,DateUTC
2013-11-13 00:13:00,37.0,22.0,30.35,ENE,65,0.0,2.0,54,0.00,,,0.01,,2013-11-13 06:13:00,
2013-11-13 00:22:00,37.0,22.0,30.35,ENE,65,0.0,2.0,54,0.00,,,0.01,,2013-11-13 06:22:00,
2013-11-13 00:42:00,37.0,22.0,30.35,ENE,65,0.0,2.0,54,0.00,,,0.01,,2013-11-13 06:42:00,
2013-11-13 00:52:00,37.0,22.0,30.35,ENE,65,0.0,2.0,54,0.00,,,0.01,,2013-11-13 06:52:00,
2013-11-13 01:11:00,36.0,21.0,30.05,NE,43,0.0,1.0,55,0.00,,,0.01,,2013-11-13 07:11:00,
2013-11-13 01:22:00,36.0,21.0,30.05,NE,43,0.0,1.0,55,0.00,,,0.01,,2013-11-13 07:22:00,
2013-11-13 01:32:00,36.0,21.0,30.05,NE,43,0.0,1.0,55,0.00,,,0.01,,2013-11-13 07:32:00,
2013-11-13 01:42:00,36.0,21.0,30.05,NE,43,0.0,1.0,55,0.00,,,0.01,,2013-11-13 07:42:00,
2013-11-13 06:42:00,36.0,25.0,30.34,North,349,0.0,1.0,65,0.00,,,0.01,,2013-11-13 12:42:00,
2013-11-13 06:52:00,36.0,25.0,30.34,North,349,0.0,1.0,65,0.00,,,0.01,,2013-11-13 12:52:00,
2013-11-13 07:42:00,36.0,31.0,30.64,NNW,344,0.0,0.0,81,0.00,,,0.01,,2013-11-13 13:42:00,
2013-11-13 07:52:00,36.0,31.0,30.64,NNW,344,0.0,1.0,81,0.00,,,0.01,,2013-11-13 13:52:00,
2013-11-13 08:11:00,36.0,31.0,30.22,NNW,344,0.0,1.0,82,0.00,,,0.01,,2013-11-13 14:11:00,
2013-11-13 08:22:00,36.0,31.0,30.22,NNW,344,0.0,1.0,82,0.00,,,0.01,,2013-11-13 14:22:00,
2013-11-13 08:42:00,36.0,30.0,30.01,East,95,0.0,3.0,78,0.00,,,0.01,,2013-11-13 14:42:00,
2013-11-13 08:53:00,33.0,26.0,29.94,ENE,75,1.0,3.0,74,0.00,,,0.01,,2013-11-13 14:53:00,
2013-11-13 09:02:00,33.0,26.0,29.94,ENE,75,1.0,3.0,74,0.00,,,0.01,,2013-11-13 15:02:00,
2013-11-13 09:12:00,33.0,26.0,29.94,ENE,75,1.0,3.0,74,0.00,,,0.01,,2013-11-13 15:12:00,
2013-11-13 09:22:00,36.0,25.0,30.12,ENE,59,0.0,5.0,65,0.00,,,0.01,,2013-11-13 15:22:00,
2013-11-13 09:33:00,36.0,25.0,30.12,ENE,59,0.0,5.0,65,0.00,,,0.01,,2013-11-13 15:33:00,
2013-11-13 09:43:00,36.0,25.0,30.12,ENE,59,0.0,5.0,65,0.00,,,0.01,,2013-11-13 15:43:00,
2013-11-13 09:53:00,36.0,25.0,30.12,ENE,59,0.0,5.0,65,0.00,,,0.01,,2013-11-13 15:53:00,
2013-11-13 13:11:00,48.0,28.0,30.26,NW,307,0.0,5.0,45,0.00,,,0.01,,2013-11-13 19:11:00,
2013-11-13 13:21:00,48.0,27.0,29.81,NNE,15,0.0,3.0,44,0.00,,,0.01,,2013-11-13 19:21:00,
2013-11-13 13:42:00,48.0,27.0,29.81,NE,46,0.0,3.0,44,0.00,,,0.01,,2013-11-13 19:42:00,
2013-11-13 13:52:00,48.0,27.0,29.81,NE,46,0.0,3.0,44,0.00,,,0.01,,2013-11-13 19:52:00,
2013-11-13 14:11:00,48.0,27.0,29.86,West,267,1.0,3.0,44,0.00,,,0.01,,2013-11-13 20:11:00,
2013-11-13 14:22:00,48.0,27.0,29.86,West,267,1.0,3.0,44,0.00,,,0.01,,2013-11-13 20:22:00,
2013-11-13 14:42:00,48.0,27.0,30.31,WNW,282,1.0,3.0,43,0.00,,,0.01,,2013-11-13 20:42:00,
2013-11-13 14:52:00,49.0,27.0,29.86,SE,126,1.0,3.0,42,0.00,,,0.01,,2013-11-13 20:52:00,
2013-11-13 15:00:00,49.0,26.0,30.14,East,83,1.0,3.0,41,0.00,,,0.01,,2013-11-13 21:00:00,
2013-11-13 15:12:00,49.0,27.0,29.98,ESE,121,1.0,3.0,42,0.00,,,0.01,,2013-11-13 21:12:00,
2013-11-13 15:22:00,49.0,26.0,30.14,East,83,1.0,3.0,41,0.00,,,0.01,,2013-11-13 21:22:00,
2013-11-13 15:33:00,49.0,26.0,30.14,East,83,1.0,3.0,41,0.00,,,0.01,,2013-11-13 21:33:00,
2013-11-13 15:43:00,49.0,26.0,30.14,East,83,1.0,3.0,41,0.00,,,0.01,,2013-11-13 21:43:00,
2013-11-13 15:53:00,49.0,26.0,30.14,East,83,1.0,3.0,41,0.00,,,0.01,,2013-11-13 21:53:00,
2013-11-13 16:42:00,49.0,26.0,29.81,ESE,123,1.0,3.0,41,0.00,,,0.01,,2013-11-13 22:42:00,
2013-11-13 16:53:00,49.0,26.0,29.81,ESE,123,1.0,3.0,41,0.00,,,0.01,,2013-11-13 22:53:00,
2013-11-13 17:10:00,49.0,27.0,30.15,SE,146,0.0,1.0,43,0.00,,,0.01,,2013-11-13 23:10:00,
2013-11-13 17:22:00,49.0,27.0,30.15,SE,146,0.0,1.0,43,0.00,,,0.01,,2013-11-13 23:22:00,
2013-11-13 17:43:00,49.0,27.0,30.15,SE,146,0.0,1.0,43,0.00,,,0.01,,2013-11-13 23:43:00,
2013-11-13 17:52:00,49.0,27.0,30.15,SE,146,0.0,1.0,43,0.00,,,0.01,,2013-11-13 23:52:00,
2013-11-13 18:00:00,48.0,28.0,29.56,SE,145,0.0,0.0,45,0.00,,,0.01,,2013-11-14 00:00:00,
2013-11-13 18:02:00,49.0,27.0,30.15,SE,146,0.0,1.0,43,0.00,,,0.01,,2013-11-14 00:02:00,
2013-11-13 18:22:00,48.0,28.0,29.56,SE,145,0.0,0.0,45,0.00,,,0.01,,2013-11-14 00:22:00,
2013-11-13 18:32:00,48.0,28.0,29.56,SE,145,0.0,0.0,45,0.00,,,0.01,,2013-11-14 00:32:00,
2013-11-13 18:42:00,48.0,28.0,29.56,SE,145,0.0,0.0,45,0.00,,,0.01,,2013-11-14 00:42:00,
2013-11-13 18:52:00,48.0,28.0,29.56,SE,145,0.0,0.0,45,0.00,,,0.01,,2013-11-14 00:52:00,
2013-11-13 22:43:00,34.0,28.0,30.31,SSE,149,0.0,0.0,79,0.00,,,0.01,,2013-11-14 04:43:00,
2013-11-13 22:54:00,34.0,28.0,30.30,SSE,149,0.0,0.0,79,0.00,,,0.01,,2013-11-14 04:54:00,
2013-11-13 23:03:00,34.0,28.0,30.30,SSE,149,0.0,0.0,79,0.00,,,0.01,,2013-11-14 05:03:00,
2013-11-13 23:13:00,34.0,28.0,30.30,SSE,149,0.0,0.0,79,0.00,,,0.01,,2013-11-14 05:13:00,
2013-11-13 23:23:00,34.0,28.0,30.30,SSE,149,0.0,0.0,79,0.00,,,0.01,,2013-11-14 05:23:00,
2013-11-13 23:34:00,34.0,28.0,30.30,SSE,149,0.0,0.0,79,0.00,,,0.01,,2013-11-14 05:34:00,
2013-11-13 23:44:00,34.0,28.0,30.30,SSE,149,0.0,0.0,79,0.00,,,0.01,,2013-11-14 05:44:00,
2013-11-13 23:53:00,34.0,28.0,30.30,SSE,149,0.0,0.0,79,0.00,,,0.01,,2013-11-14 05:53:00,